createdAt,value
2022-10-18T00:01:19.798Z,30.70
2022-10-18T00:03:51.829Z,32.55
2022-10-18T00:06:23.590Z,29.50
2022-10-18T00:20:46.269Z,36.45
2022-10-18T00:23:38.060Z,35.38
2022-10-18T00:26:35.192Z,34.05
2022-10-18T00:29:25.942Z,32.40
2022-10-18T00:32:17.858Z,34.60
2022-10-18T00:34:48.701Z,41.38
2022-10-18T00:37:19.893Z,36.10
2022-10-18T00:40:13.556Z,35.45
2022-10-18T00:42:44.424Z,39.90
2022-10-18T00:45:41.817Z,38.58
2022-10-18T00:48:15.833Z,36.90
2022-10-18T01:14:02.647Z,37.67
2022-10-18T01:17:56.176Z,38.20
2022-10-18T01:20:57.261Z,35.75
2022-10-18T01:24:23.947Z,36.13
2022-10-18T01:27:36.971Z,33.90
2022-10-18T01:30:45.514Z,38.10
2022-10-18T01:33:25.814Z,36.20
2022-10-18T01:36:20.505Z,36.65
2022-10-18T02:49:47.281Z,32.22
2022-10-18T02:52:38.371Z,36.63
2022-10-18T02:55:32.057Z,32.28
2022-10-18T02:58:03.369Z,31.85
2022-10-18T03:00:34.340Z,31.92
2022-10-18T03:03:05.476Z,31.38
2022-10-18T03:05:56.608Z,34.38
2022-10-18T03:26:29.731Z,31.00
2022-10-18T03:29:23.787Z,29.73
2022-10-18T03:31:54.666Z,31.17
2022-10-18T03:35:06.562Z,30.30
2022-10-18T03:37:37.761Z,32.47
2022-10-18T03:40:09.632Z,26.92
2022-10-18T03:42:40.898Z,28.20
2022-10-18T03:45:34.044Z,28.02
2022-10-18T03:48:05.165Z,32.08
2022-10-18T03:50:36.153Z,31.55
2022-10-18T03:53:07.397Z,28.55
2022-10-18T03:55:57.973Z,27.55
2022-10-18T03:58:30.214Z,29.65
2022-10-18T04:01:01.132Z,27.15
2022-10-18T04:03:55.257Z,27.10
2022-10-18T04:06:26.317Z,27.63
2022-10-18T04:09:17.336Z,26.55
2022-10-18T04:58:19.369Z,25.80
2022-10-18T05:00:50.904Z,25.65
2022-10-18T05:03:21.944Z,25.15
2022-10-18T05:06:08.035Z,24.15
2022-10-18T05:09:01.796Z,24.10
2022-10-18T05:11:33.070Z,26.38
2022-10-18T05:14:04.159Z,22.13
2022-10-18T05:17:04.115Z,22.20
2022-10-18T05:19:35.376Z,22.48
2022-10-18T05:22:06.406Z,24.77
2022-10-18T05:24:58.039Z,23.35
2022-10-18T05:27:30.337Z,23.20
2022-10-18T05:30:04.611Z,21.77
2022-10-18T05:32:59.436Z,21.05
2022-10-18T05:35:30.264Z,26.48
2022-10-18T05:38:03.930Z,24.15
2022-10-18T05:40:53.456Z,23.67
2022-10-18T05:43:24.625Z,22.05
2022-10-18T05:46:15.896Z,24.45
2022-10-18T05:48:51.221Z,20.35
2022-10-18T05:51:22.431Z,23.30
2022-10-18T05:54:36.296Z,21.17
2022-10-18T05:57:07.448Z,21.95
2022-10-18T06:00:12.015Z,22.90
2022-10-18T06:25:19.525Z,18.70
2022-10-18T06:28:30.235Z,19.05
2022-10-18T06:31:24.517Z,20.10
2022-10-18T06:33:57.566Z,17.55
2022-10-18T06:36:48.445Z,19.98
2022-10-18T06:39:42.444Z,20.08
2022-10-18T06:42:34.462Z,17.42
2022-10-18T06:45:06.683Z,18.65
2022-10-18T06:47:38.331Z,19.00
2022-10-18T06:50:10.869Z,18.00
2022-10-18T07:04:36.586Z,17.05
2022-10-18T07:07:07.470Z,18.90
2022-10-18T07:09:38.675Z,18.45
2022-10-18T07:12:29.630Z,17.48
2022-10-18T07:15:25.242Z,16.13
2022-10-18T07:17:56.424Z,16.17
2022-10-18T07:20:47.619Z,17.42
2022-10-18T07:23:18.536Z,17.45
2022-10-18T07:25:49.644Z,16.52
2022-10-18T07:28:41.300Z,18.88
2022-10-18T07:31:16.108Z,15.00
2022-10-18T07:33:47.341Z,17.40
2022-10-18T08:15:04.671Z,17.95
2022-10-18T08:17:55.807Z,18.13
2022-10-18T08:20:30.829Z,16.90
2022-10-18T08:23:02.775Z,16.65
2022-10-18T08:25:33.979Z,15.55
2022-10-18T08:28:05.019Z,18.70
2022-10-18T08:30:38.105Z,17.90
2022-10-18T08:33:09.019Z,17.65
2022-10-18T08:36:16.950Z,17.60
2022-10-18T08:51:47.116Z,14.05
2022-10-18T08:54:28.013Z,14.85
2022-10-18T08:57:04.944Z,16.30
2022-10-18T08:59:45.676Z,15.88
2022-10-18T09:02:51.613Z,14.50
2022-10-18T09:05:51.927Z,14.07
2022-10-18T09:08:45.803Z,17.00
2022-10-18T09:11:41.863Z,14.35
2022-10-18T09:14:27.168Z,16.65
2022-10-18T09:16:57.955Z,14.07
2022-10-18T09:20:25.608Z,16.80
2022-10-18T09:23:41.826Z,13.88
2022-10-18T09:26:51.040Z,15.30
2022-10-18T09:32:51.080Z,15.43
2022-10-18T09:35:33.324Z,13.77
2022-10-18T09:38:34.404Z,14.98
2022-10-18T11:02:22.743Z,16.02
2022-10-18T11:04:56.402Z,16.10
2022-10-18T11:07:42.755Z,22.25
2022-10-18T11:10:16.298Z,18.90
2022-10-18T11:12:51.878Z,16.42
2022-10-18T11:15:37.780Z,16.40
2022-10-18T11:18:35.358Z,19.70
2022-10-18T11:21:46.514Z,15.18
2022-10-18T11:24:59.396Z,16.08
2022-10-18T11:27:32.501Z,16.30
2022-10-18T11:35:11.518Z,14.32
2022-10-18T12:08:41.055Z,14.50
2022-10-18T12:14:52.160Z,14.73
2022-10-18T12:17:51.513Z,13.38
2022-10-18T13:07:35.599Z,31.48
2022-10-18T13:10:38.175Z,32.42
2022-10-18T13:13:39.872Z,32.95
2022-10-18T13:16:57.729Z,32.90
2022-10-18T13:20:25.536Z,30.88
2022-10-18T13:23:56.666Z,30.63
2022-10-18T13:26:59.079Z,31.27
2022-10-18T13:30:13.094Z,29.15
2022-10-18T13:33:24.644Z,33.65
2022-10-18T14:12:18.403Z,25.50
2022-10-18T14:15:16.822Z,27.48
2022-10-18T14:18:10.439Z,23.30
2022-10-18T14:21:01.593Z,25.63
2022-10-18T14:23:40.809Z,23.60
2022-10-18T14:29:34.023Z,24.52
2022-10-18T14:35:31.472Z,23.00
2022-10-18T14:38:18.035Z,24.40
2022-10-18T14:40:50.306Z,21.17
2022-10-18T15:03:20.432Z,23.02
2022-10-18T15:06:04.251Z,21.13
2022-10-18T15:08:46.063Z,19.33
2022-10-18T15:11:40.391Z,21.33
2022-10-18T15:18:06.930Z,18.40
2022-10-18T15:20:44.021Z,19.55
2022-10-18T15:23:33.714Z,21.52
2022-10-18T15:26:29.716Z,18.90
2022-10-18T15:29:04.494Z,22.08
2022-10-18T15:31:41.356Z,21.75
2022-10-18T15:34:29.751Z,20.65
2022-10-18T15:37:02.201Z,19.30
2022-10-18T15:52:36.637Z,16.92
2022-10-18T15:55:35.338Z,17.83
2022-10-18T15:58:49.122Z,16.48
2022-10-18T16:07:29.523Z,19.40
2022-10-18T16:22:06.919Z,16.85
2022-10-18T16:25:35.643Z,17.33
2022-10-18T16:28:06.798Z,18.52
2022-10-18T16:30:38.736Z,17.88
2022-10-18T16:33:09.944Z,18.15
2022-10-18T16:36:01.488Z,17.15
2022-10-18T16:38:35.739Z,15.60
2022-10-18T16:41:08.857Z,16.35
2022-10-18T16:44:00.728Z,15.50
2022-10-18T16:46:58.479Z,18.63
2022-10-18T16:49:30.401Z,16.63
2022-10-18T16:52:23.544Z,20.50
2022-10-18T16:54:55.688Z,15.90
2022-10-18T16:57:27.782Z,15.00
2022-10-18T16:59:59.157Z,17.40
2022-10-18T17:02:30.724Z,14.93
2022-10-18T17:05:25.240Z,15.73
2022-10-18T17:07:57.976Z,16.65
2022-10-18T17:10:28.970Z,16.00
2022-10-18T17:12:59.957Z,18.08
2022-10-18T17:15:32.892Z,14.43
2022-10-18T17:18:07.216Z,13.07
2022-10-18T17:20:38.265Z,14.52
2022-10-18T17:23:10.474Z,13.45
2022-10-18T17:26:26.195Z,13.38
2022-10-18T17:29:01.333Z,16.90
2022-10-18T17:31:52.464Z,14.90
2022-10-18T17:34:49.926Z,15.52
2022-10-18T17:37:35.603Z,15.98
2022-10-18T17:40:08.654Z,16.00
2022-10-18T17:43:06.273Z,15.02
2022-10-18T17:45:38.431Z,14.48
2022-10-18T18:09:17.469Z,14.90
2022-10-18T18:12:08.689Z,14.48
2022-10-18T18:15:02.437Z,13.02
2022-10-18T18:17:57.208Z,11.30
2022-10-18T18:20:29.412Z,14.85
2022-10-18T18:23:29.921Z,13.70
2022-10-18T18:42:56.764Z,13.13
2022-10-18T18:45:56.989Z,13.90
2022-10-18T18:48:29.729Z,13.43
2022-10-18T18:51:00.795Z,16.17
2022-10-18T18:53:32.150Z,15.07
2022-10-18T18:56:12.799Z,15.13
2022-10-18T18:59:07.144Z,11.40
2022-10-18T19:01:39.718Z,13.32
2022-10-18T19:04:11.797Z,12.55
2022-10-18T19:10:09.727Z,12.63
2022-10-18T19:13:01.868Z,12.77
2022-10-18T21:48:18.940Z,13.15
2022-10-18T21:50:49.893Z,12.35
2022-10-18T21:53:20.960Z,11.45
2022-10-18T21:55:52.007Z,12.60
2022-10-18T21:58:22.853Z,13.32
2022-10-18T22:00:53.805Z,12.25
2022-10-18T22:03:24.671Z,11.75
2022-10-18T22:06:06.580Z,12.57
2022-10-18T22:08:59.897Z,12.98
2022-10-18T22:11:41.389Z,13.05
2022-10-18T22:14:35.471Z,12.50
2022-10-18T22:17:06.432Z,10.68
2022-10-18T22:20:13.009Z,13.43
2022-10-18T22:22:43.817Z,12.27
2022-10-18T22:25:47.333Z,12.88
2022-10-18T23:04:04.068Z,12.65
2022-10-18T23:06:54.976Z,12.32
2022-10-18T23:09:25.790Z,13.50
2022-10-18T23:11:56.971Z,12.27
2022-10-18T23:14:27.870Z,12.27
2022-10-18T23:16:59.591Z,10.98
2022-10-18T23:22:35.624Z,9.65
2022-10-18T23:25:32.638Z,11.90
2022-10-18T23:28:04.834Z,12.35
2022-10-18T23:30:36.008Z,13.80
2022-10-18T23:33:06.894Z,13.10
2022-10-18T23:35:39.575Z,10.40
2022-10-18T23:38:11.435Z,11.93
2022-10-18T23:41:03.140Z,9.82
2022-10-18T23:43:34.394Z,10.98
2022-10-18T23:46:05.778Z,11.13
2022-10-18T23:48:59.791Z,11.15
2022-10-18T23:51:32.044Z,11.57
2022-10-18T23:54:03.030Z,15.13
2022-10-18T23:56:54.088Z,14.35
2022-10-18T23:59:25.235Z,19.35
